Alpha, Washington
Current Conditions -  °F | °C
As of 5:15 PM on Wednesday 22 Oct 2014 (Local Time) from KCLS Reporting Station
Light Rain Light Rain  
Wind Chill: 57°   Ceiling: 1600
Heat Index: 57°   Visibility: 10mi
Dew Point: 55°   Wind: 9mph
Humidity: 94%   Direction: 170°S
Pressure: 29.61"   Gusts: NA
Location:  46.5995°N, 122.665°W
Report Text: KCLS 230015Z AUTO 17008KT 10SM -RA BKN016 OVC022 14/13 A2961 RMK AO2
Loading
Personal Weather Stations






























Interactive Weather Map
Tropical Storm Tracking
New forecast layout! Learn more

10-Day Weather Forecast

Advertisements
Track Severe Weather on mobile